Hauptseite
METAR-TAF:

METAR-TAF

Flughäfen :

Verkehrslandeplatz Mönchengladbach

Mönchengladbach, Deutschland

Breite: 51-13-49N, Länge: 006-30-16E, Höhe: 38 m

Beobachtung

Neuester Wetterbericht von vor 1 Stunde und 31 Minuten, um 17:50 UTC
Wind 7 kt aus West, variierte zwischen Südwest und Nord/Nordwest
Temperatur 23°C
Luftfeuchtigkeit 50%
Luftdruck 1017 hPa
Sichtweite 10 km oder mehr
keine Wolken unter 1500 m und keine Kumulonimbus oder Gewitterwolken

METAR: EDLN 191750Z 28007KT 230V340 CAVOK 23/12 Q1017

Zeit: 21:21 (19:21 UTC)

Prognose

Neuester Wetterbericht von vor 2 Stunden und 21 Minuten, um 17:00 UTC
Gültige Prognose vom 19 um 18 UTC bis 20 um 03 UTC
Wind 7 kt aus West
Sichtweite 10 km oder mehr
keine Wolken unter 1500 m und keine Kumulonimbus oder Gewitterwolken
Übergehend zu
vom 19 um 18 UTC bis 19 um 21 UTC
Wind 3 kt aus Süd/Südwest

TAF: EDLN 191700Z 1918/2003 26007KT CAVOK BECMG 1918/1921 20003KT

Wetterbeobachtungen und Prognosen von mehr als 4000 Flughäfen (METAR und TAF Bericht).

Die verfügbaren Stationen werden durch gelbe und rote Markierungen auf der Karte dargestellt.

Führen Sie die Maus auf sie, um den Namen der Station zu sehen.

Darauf klicken, um die Beobachtung von Wetterbeobachtungen und Prognosen zu sehen.

Um die Karte zu ändern : klicken Sie auf den grünen Tasten mit einem schwarzen Kreuz Zum Vergrößern, auf den grünen Button mit einem Gedankenstrich zu verkleinern, oder auf die grünen Pfeile für benachbarte Karten.


METAR-TAF: